createdAt,value
2022-08-26T00:02:12.962Z,98214.63
2022-08-26T00:04:47.252Z,98205.34
2022-08-26T00:07:26.301Z,98200.81
2022-08-26T00:10:01.345Z,98209.22
2022-08-26T00:12:47.251Z,98211.69
2022-08-26T00:15:19.815Z,98170.91
2022-08-26T00:17:56.137Z,98214.91
2022-08-26T00:20:32.741Z,98215.69
2022-08-26T00:23:07.928Z,98206.63
2022-08-26T00:25:42.589Z,98204.09
2022-08-26T00:28:19.499Z,98205.66
2022-08-26T00:31:04.718Z,98202.91
2022-08-26T00:36:22.565Z,98200.41
2022-08-26T00:39:05.321Z,98199.81
2022-08-26T00:41:39.776Z,98204.66
2022-08-26T00:44:22.319Z,98196.66
2022-08-26T00:47:03.459Z,98199.13
2022-08-26T00:49:45.976Z,98186.47
2022-08-26T00:52:46.471Z,98199.50
2022-08-26T00:55:44.964Z,98191.53
2022-08-26T00:58:16.415Z,98188.28
2022-08-26T01:03:40.559Z,98192.88
2022-08-26T01:06:16.121Z,98197.59
2022-08-26T01:08:53.521Z,98202.78
2022-08-26T01:11:23.515Z,98201.75
2022-08-26T01:13:56.115Z,98203.06
2022-08-26T01:16:39.322Z,98200.66
2022-08-26T01:19:35.981Z,98204.50
2022-08-26T01:22:32.772Z,98201.69
2022-08-26T01:25:16.750Z,98201.69
2022-08-26T01:27:46.900Z,98208.53
2022-08-26T01:30:28.075Z,98212.03
2022-08-26T01:33:03.010Z,98200.75
2022-08-26T01:35:38.332Z,98206.44
2022-08-26T01:38:09.606Z,98207.25
2022-08-26T01:40:46.686Z,98185.66
2022-08-26T01:43:23.150Z,98208.53
2022-08-26T01:46:00.549Z,98206.06
2022-08-26T01:48:39.423Z,98206.09
2022-08-26T01:51:14.308Z,98198.19
2022-08-26T01:53:49.501Z,98203.81
2022-08-26T01:56:20.587Z,98200.03
2022-08-26T01:59:02.383Z,98203.69
2022-08-26T02:01:47.334Z,98197.47
2022-08-26T02:07:26.695Z,98193.75
2022-08-26T02:09:59.122Z,98186.66
2022-08-26T02:12:33.540Z,98189.63
2022-08-26T02:15:09.640Z,98195.66
2022-08-26T02:17:52.572Z,98187.03
2022-08-26T02:20:27.148Z,98193.38
2022-08-26T02:23:04.049Z,98189.75
2022-08-26T02:25:53.117Z,98196.59
2022-08-26T02:28:27.479Z,98178.72
2022-08-26T02:31:05.806Z,98197.19
2022-08-26T02:33:52.835Z,98201.00
2022-08-26T02:36:50.863Z,98198.88
2022-08-26T02:39:28.707Z,98189.56
2022-08-26T02:42:07.537Z,98172.91
2022-08-26T02:44:50.386Z,98196.25
2022-08-26T02:47:19.174Z,98189.75
2022-08-26T02:49:59.131Z,98186.16
2022-08-26T02:52:34.097Z,98169.28
2022-08-26T02:55:09.565Z,98201.44
2022-08-26T02:57:42.787Z,98191.25
2022-08-26T03:00:15.591Z,98167.72
2022-08-26T03:03:01.450Z,98185.56
2022-08-26T03:05:40.821Z,98183.00
2022-08-26T03:08:24.863Z,98187.28
2022-08-26T03:11:02.464Z,98185.00
2022-08-26T03:13:40.831Z,98168.41
2022-08-26T03:16:17.858Z,98135.38
2022-08-26T03:18:59.899Z,98183.72
2022-08-26T03:21:33.650Z,98184.09
2022-08-26T03:24:17.903Z,98176.50
2022-08-26T03:26:52.204Z,98177.69
2022-08-26T03:32:28.265Z,98186.25
2022-08-26T03:35:00.078Z,98163.84
2022-08-26T03:37:32.579Z,98175.47
2022-08-26T03:40:13.422Z,98176.94
2022-08-26T03:42:50.441Z,98188.78
2022-08-26T03:45:24.917Z,98178.31
2022-08-26T03:48:11.963Z,98179.28
2022-08-26T03:50:51.469Z,98173.44
2022-08-26T03:53:22.297Z,98169.25
2022-08-26T03:55:55.859Z,98168.56
2022-08-26T03:58:32.835Z,98169.53
2022-08-26T04:01:08.960Z,98178.63
2022-08-26T04:03:57.682Z,98177.88
2022-08-26T04:06:48.709Z,98179.19
2022-08-26T04:09:32.768Z,98178.91
2022-08-26T04:12:06.140Z,98163.16
2022-08-26T04:14:41.157Z,98175.19
2022-08-26T04:17:15.056Z,98189.38
2022-08-26T04:19:48.340Z,98184.78
2022-08-26T04:22:24.099Z,98180.69
2022-08-26T04:25:03.452Z,98181.03
2022-08-26T04:27:41.306Z,98192.19
2022-08-26T04:30:18.188Z,98190.47
2022-08-26T04:32:57.311Z,98195.56
2022-08-26T04:35:43.228Z,98193.63
2022-08-26T04:38:14.130Z,98195.69
2022-08-26T04:40:47.893Z,98191.91
2022-08-26T04:43:18.136Z,98184.03
2022-08-26T04:45:48.837Z,98183.34
2022-08-26T04:48:21.346Z,98192.88
2022-08-26T04:50:57.907Z,98189.59
2022-08-26T04:53:36.395Z,98191.13
2022-08-26T04:56:12.332Z,98176.75
2022-08-26T04:58:44.607Z,98164.28
2022-08-26T05:01:15.955Z,98179.41
2022-08-26T05:03:52.471Z,98185.38
2022-08-26T05:06:24.076Z,98186.22
2022-08-26T05:08:58.511Z,98178.72
2022-08-26T05:11:32.846Z,98190.06
2022-08-26T05:14:07.984Z,98194.13
2022-08-26T05:17:01.135Z,98180.31
2022-08-26T05:19:36.473Z,98178.22
2022-08-26T05:22:10.496Z,98204.25
2022-08-26T05:24:50.897Z,98142.97
2022-08-26T05:27:28.516Z,98205.88
2022-08-26T05:30:01.762Z,98204.09
2022-08-26T05:32:42.690Z,98198.13
2022-08-26T05:35:14.531Z,98186.06
2022-08-26T05:37:50.300Z,98200.72
2022-08-26T05:40:27.093Z,98193.56
2022-08-26T05:43:10.246Z,98198.78
2022-08-26T05:45:49.407Z,98205.03
2022-08-26T05:48:22.770Z,98202.66
2022-08-26T05:50:59.621Z,98203.88
2022-08-26T05:53:31.403Z,98197.34
2022-08-26T05:56:03.505Z,98202.28
2022-08-26T05:58:43.049Z,98196.91
2022-08-26T06:01:23.687Z,98200.22
2022-08-26T06:03:57.053Z,98208.28
2022-08-26T06:06:37.317Z,98206.00
2022-08-26T06:09:11.253Z,98203.75
2022-08-26T06:11:43.021Z,98199.88
2022-08-26T06:14:14.919Z,98193.28
2022-08-26T06:16:52.828Z,98188.53
2022-08-26T06:19:37.472Z,98192.75
2022-08-26T06:22:30.345Z,98197.66
2022-08-26T06:25:21.541Z,98183.28
2022-08-26T06:28:01.898Z,98175.50
2022-08-26T06:30:32.660Z,98174.38
2022-08-26T06:33:10.782Z,98168.47
2022-08-26T06:35:48.357Z,98154.00
2022-08-26T06:38:32.338Z,98165.31
2022-08-26T06:41:01.059Z,98162.31
2022-08-26T06:43:31.295Z,98157.69
2022-08-26T06:46:08.475Z,98157.50
2022-08-26T06:48:45.073Z,98158.34
2022-08-26T06:51:28.476Z,98165.13
2022-08-26T06:54:00.808Z,98167.69
2022-08-26T06:56:54.181Z,98154.44
2022-08-26T06:59:32.382Z,98150.41
2022-08-26T07:02:04.515Z,98148.69
2022-08-26T07:04:34.858Z,98162.47
2022-08-26T07:07:06.817Z,98152.34
2022-08-26T07:09:53.588Z,98151.63
2022-08-26T07:12:25.299Z,98147.63
2022-08-26T07:15:04.784Z,98158.56
2022-08-26T07:17:40.980Z,98150.88
2022-08-26T07:20:14.671Z,98147.81
2022-08-26T07:22:45.578Z,98151.50
2022-08-26T07:25:28.616Z,98150.75
2022-08-26T07:28:08.682Z,98145.03
2022-08-26T07:30:49.471Z,98145.03
2022-08-26T07:33:24.684Z,98128.88
2022-08-26T07:35:58.295Z,98143.06
2022-08-26T07:38:31.018Z,98126.16
2022-08-26T07:41:08.724Z,98139.47
2022-08-26T07:43:43.677Z,98139.13
2022-08-26T07:46:27.504Z,98139.91
2022-08-26T07:49:12.944Z,98124.56
2022-08-26T07:51:53.866Z,98117.31
2022-08-26T07:54:39.193Z,98122.16
2022-08-26T07:57:13.513Z,98129.78
2022-08-26T07:59:56.162Z,98119.31
2022-08-26T08:02:33.521Z,98124.56
2022-08-26T08:05:06.197Z,98122.16
2022-08-26T08:07:44.848Z,98125.38
2022-08-26T08:10:22.783Z,98114.44
2022-08-26T08:13:01.262Z,98110.38
2022-08-26T08:15:40.112Z,98118.00
2022-08-26T08:18:15.977Z,98119.63
2022-08-26T08:20:59.406Z,98118.00
2022-08-26T08:23:36.820Z,98111.50
2022-08-26T08:26:14.893Z,98110.50
2022-08-26T08:28:55.090Z,98104.41
2022-08-26T08:34:26.480Z,98104.84
2022-08-26T08:36:58.337Z,98091.75
2022-08-26T08:39:32.638Z,98083.59
2022-08-26T08:42:12.000Z,98101.50
2022-08-26T08:44:52.031Z,98102.47
2022-08-26T08:47:29.542Z,98092.69
2022-08-26T08:50:18.820Z,98100.28
2022-08-26T08:53:00.799Z,98097.56
2022-08-26T08:55:45.238Z,98089.88
2022-08-26T08:58:20.626Z,98093.94
2022-08-26T09:01:14.099Z,98093.59
2022-08-26T09:03:55.243Z,98087.78
2022-08-26T09:06:32.660Z,98083.97
2022-08-26T09:09:08.927Z,98092.00
2022-08-26T09:11:38.538Z,98088.88
2022-08-26T09:14:10.883Z,98089.25
2022-08-26T09:17:02.538Z,98085.91
2022-08-26T09:19:59.118Z,98079.31
2022-08-26T09:22:49.636Z,98077.41
2022-08-26T09:25:20.572Z,98076.47
2022-08-26T09:27:59.373Z,98076.22
2022-08-26T09:30:41.373Z,98074.88
2022-08-26T09:33:21.992Z,98074.19
2022-08-26T09:35:57.867Z,98067.91
2022-08-26T09:38:41.889Z,98067.16
2022-08-26T09:41:37.078Z,98065.69
2022-08-26T09:44:25.249Z,98057.63
2022-08-26T09:47:10.866Z,98047.41
2022-08-26T09:49:49.698Z,98056.81
2022-08-26T09:52:35.384Z,98052.50
2022-08-26T09:55:25.968Z,98050.63
2022-08-26T09:57:58.194Z,98057.94
2022-08-26T10:00:42.500Z,98050.81
2022-08-26T10:03:23.278Z,98049.78
2022-08-26T10:06:22.950Z,98052.75
2022-08-26T10:09:04.534Z,98043.94
2022-08-26T10:11:53.937Z,98042.47
2022-08-26T10:14:51.509Z,98038.75
2022-08-26T10:17:46.168Z,98041.91
2022-08-26T10:20:40.327Z,98041.13
2022-08-26T10:23:29.660Z,98033.31
2022-08-26T10:26:22.252Z,98035.97
2022-08-26T10:29:25.687Z,98033.28
2022-08-26T10:32:19.859Z,98027.22
2022-08-26T10:35:05.876Z,98024.03
2022-08-26T10:37:49.049Z,98019.22
2022-08-26T10:40:53.701Z,98023.13
2022-08-26T10:43:33.788Z,98022.50
2022-08-26T10:46:16.102Z,98018.88
2022-08-26T10:49:03.188Z,98009.03
2022-08-26T10:51:46.059Z,98013.53
2022-08-26T10:54:45.169Z,98002.16
2022-08-26T10:57:41.893Z,98016.19
2022-08-26T11:00:47.528Z,98009.19
2022-08-26T11:03:45.371Z,98005.97
2022-08-26T11:06:27.300Z,98004.06
2022-08-26T11:09:07.502Z,98006.38
2022-08-26T11:11:50.547Z,97993.69
2022-08-26T11:14:56.189Z,97996.97
2022-08-26T11:18:11.746Z,97995.53
2022-08-26T11:20:57.870Z,97991.34
2022-08-26T11:23:50.744Z,97984.97
2022-08-26T11:26:55.662Z,97983.75
2022-08-26T11:30:06.652Z,97974.19
2022-08-26T11:32:50.701Z,97976.84
2022-08-26T11:35:20.623Z,97973.03
2022-08-26T11:38:31.469Z,97966.22
2022-08-26T11:41:29.361Z,97960.53
2022-08-26T11:44:02.592Z,97972.41
2022-08-26T11:46:39.740Z,97952.19
2022-08-26T11:49:24.958Z,97949.47
2022-08-26T11:52:10.455Z,97943.97
2022-08-26T11:55:16.078Z,97938.94
2022-08-26T11:57:50.788Z,97938.03
2022-08-26T12:00:39.260Z,97930.88
2022-08-26T12:03:26.873Z,97927.69
2022-08-26T12:06:01.817Z,97924.59
2022-08-26T12:08:55.591Z,97920.72
2022-08-26T12:11:41.464Z,97920.88
2022-08-26T12:14:27.925Z,97916.84
2022-08-26T12:17:12.222Z,97919.56
2022-08-26T12:19:45.216Z,97914.00
2022-08-26T12:22:27.325Z,97908.91
2022-08-26T12:25:10.516Z,97900.66
2022-08-26T12:30:43.057Z,97908.13
2022-08-26T12:33:22.494Z,97897.56
2022-08-26T12:36:03.076Z,97894.66
2022-08-26T12:38:45.809Z,97881.41
2022-08-26T12:42:03.311Z,97883.84
2022-08-26T12:44:56.412Z,97893.00
2022-08-26T12:47:46.198Z,97891.91
2022-08-26T12:50:30.461Z,97873.59
2022-08-26T12:53:36.045Z,97871.41
2022-08-26T12:56:25.965Z,97870.19
2022-08-26T12:59:34.788Z,97880.09
2022-08-26T13:02:05.015Z,97868.09
2022-08-26T13:04:47.272Z,97873.00
2022-08-26T13:07:26.696Z,97862.13
2022-08-26T13:10:01.369Z,97864.75
2022-08-26T13:12:34.432Z,97859.09
2022-08-26T13:15:11.932Z,97856.13
2022-08-26T13:17:49.356Z,97855.38
2022-08-26T13:20:22.987Z,97850.56
2022-08-26T13:23:00.076Z,97833.44
2022-08-26T13:25:34.748Z,97841.16
2022-08-26T13:28:09.457Z,97847.41
2022-08-26T13:33:31.978Z,97837.59
2022-08-26T13:36:12.140Z,97842.47
2022-08-26T13:38:52.138Z,97840.19
2022-08-26T13:41:31.053Z,97830.63
2022-08-26T13:44:04.401Z,97820.69
2022-08-26T13:46:36.299Z,97819.34
2022-08-26T13:49:06.787Z,97809.28
2022-08-26T13:51:41.922Z,97822.47
2022-08-26T13:54:21.025Z,97815.16
2022-08-26T13:57:03.795Z,97811.53
2022-08-26T13:59:39.114Z,97805.69
2022-08-26T14:02:14.552Z,97810.94
2022-08-26T14:04:48.522Z,97809.47
2022-08-26T14:07:20.759Z,97810.06
2022-08-26T14:09:51.374Z,97800.69
2022-08-26T14:12:23.024Z,97799.94
2022-08-26T14:14:57.823Z,97799.16
2022-08-26T14:17:41.494Z,97800.59
2022-08-26T14:20:20.079Z,97796.31
2022-08-26T14:23:13.038Z,97798.59
2022-08-26T14:25:45.283Z,97797.53
2022-08-26T14:28:17.899Z,97786.81
2022-08-26T14:31:05.730Z,97786.38
2022-08-26T14:33:39.495Z,97772.06
2022-08-26T14:36:29.347Z,97781.38
2022-08-26T14:39:08.956Z,97784.56
2022-08-26T14:42:01.972Z,97785.97
2022-08-26T14:44:42.263Z,97773.69
2022-08-26T14:47:28.481Z,97776.31
2022-08-26T14:50:06.434Z,97773.50
2022-08-26T14:53:01.702Z,97776.72
2022-08-26T14:55:35.440Z,97764.88
2022-08-26T14:58:09.619Z,97766.81
2022-08-26T15:00:48.842Z,97767.81
2022-08-26T15:03:21.419Z,97768.00
2022-08-26T15:05:51.582Z,97761.81
2022-08-26T15:08:23.933Z,97741.09
2022-08-26T15:10:55.178Z,97744.41
2022-08-26T15:13:32.559Z,97735.63
2022-08-26T15:16:06.358Z,97750.66
2022-08-26T15:18:40.215Z,97751.50
2022-08-26T15:21:17.333Z,97738.16
2022-08-26T15:23:54.927Z,97750.56
2022-08-26T15:26:26.440Z,97746.25
2022-08-26T15:29:11.722Z,97741.03
2022-08-26T15:31:43.770Z,97738.84
2022-08-26T15:34:21.825Z,97747.59
2022-08-26T15:36:58.598Z,97746.13
2022-08-26T15:39:29.705Z,97749.88
2022-08-26T15:42:06.415Z,97748.13
2022-08-26T15:44:38.266Z,97751.97
2022-08-26T15:47:20.136Z,97744.16
2022-08-26T15:49:50.382Z,97737.06
2022-08-26T15:52:27.843Z,97726.34
2022-08-26T15:55:06.302Z,97727.50
2022-08-26T15:57:35.804Z,97738.00
2022-08-26T16:00:08.164Z,97739.91
2022-08-26T16:02:50.588Z,97742.66
2022-08-26T16:05:23.431Z,97740.72
2022-08-26T16:07:59.335Z,97740.53
2022-08-26T16:10:39.520Z,97733.22
2022-08-26T16:13:14.801Z,97731.34
2022-08-26T16:15:54.841Z,97734.44
2022-08-26T16:18:29.584Z,97728.31
2022-08-26T16:21:13.124Z,97730.75
2022-08-26T16:23:46.842Z,97742.47
2022-08-26T16:26:24.862Z,97740.63
2022-08-26T16:29:07.829Z,97730.50
2022-08-26T16:31:52.219Z,97724.31
2022-08-26T16:34:20.584Z,97732.03
2022-08-26T16:36:48.923Z,97732.34
2022-08-26T16:39:23.382Z,97732.50
2022-08-26T16:42:00.418Z,97731.00
2022-08-26T16:44:30.897Z,97730.19
2022-08-26T16:47:08.333Z,97719.50
2022-08-26T16:49:42.481Z,97729.41
2022-08-26T16:52:17.956Z,97735.19
2022-08-26T16:57:45.959Z,97749.25
2022-08-26T17:00:41.967Z,97745.72
2022-08-26T17:03:18.165Z,97745.59
2022-08-26T17:05:52.522Z,97751.31
2022-08-26T17:08:28.922Z,97751.75
2022-08-26T17:11:13.737Z,97744.09
2022-08-26T17:13:47.887Z,97748.63
2022-08-26T17:16:32.528Z,97738.69
2022-08-26T17:19:23.710Z,97733.00
2022-08-26T17:21:56.174Z,97742.03
2022-08-26T17:24:32.895Z,97744.41
2022-08-26T17:27:09.864Z,97742.97
2022-08-26T17:29:51.152Z,97733.38
2022-08-26T17:32:28.238Z,97742.44
2022-08-26T17:34:59.021Z,97744.19
2022-08-26T17:37:29.135Z,97741.22
2022-08-26T17:40:11.762Z,97741.72
2022-08-26T17:42:50.856Z,97749.44
2022-08-26T17:45:23.924Z,97753.81
2022-08-26T17:47:56.719Z,97755.47
2022-08-26T17:50:28.054Z,97757.56
2022-08-26T17:52:59.367Z,97756.16
2022-08-26T17:55:39.080Z,97764.59
2022-08-26T17:58:14.727Z,97764.59
2022-08-26T18:00:59.189Z,97768.53
2022-08-26T18:03:35.033Z,97762.53
2022-08-26T18:06:05.361Z,97774.00
2022-08-26T18:08:35.547Z,97769.31
2022-08-26T18:11:23.043Z,97775.75
2022-08-26T18:14:00.742Z,97775.16
2022-08-26T18:16:35.428Z,97777.59
2022-08-26T18:19:15.208Z,97788.44
2022-08-26T18:21:47.593Z,97788.06
2022-08-26T18:24:22.565Z,97797.84
2022-08-26T18:26:56.629Z,97806.50
2022-08-26T18:29:36.065Z,97804.03
2022-08-26T18:32:24.139Z,97801.06
2022-08-26T18:34:52.304Z,97816.94
2022-08-26T18:37:32.223Z,97816.97
2022-08-26T18:40:04.418Z,97816.09
2022-08-26T18:42:37.819Z,97821.38
2022-08-26T18:45:16.062Z,97825.16
2022-08-26T18:47:48.010Z,97823.25
2022-08-26T18:50:19.340Z,97827.97
2022-08-26T18:53:03.076Z,97825.69
2022-08-26T18:55:40.536Z,97828.53
2022-08-26T18:58:31.956Z,97823.44
2022-08-26T19:01:09.193Z,97826.31
2022-08-26T19:06:29.064Z,97826.47
2022-08-26T19:09:00.311Z,97830.84
2022-08-26T19:11:37.502Z,97810.44
2022-08-26T19:14:22.189Z,97833.75
2022-08-26T19:17:04.254Z,97822.13
2022-08-26T19:19:35.499Z,97824.22
2022-08-26T19:22:06.719Z,97832.66
2022-08-26T19:24:36.133Z,97837.44
2022-08-26T19:27:05.249Z,97837.13
2022-08-26T19:29:44.666Z,97846.75
2022-08-26T19:32:17.583Z,97814.16
2022-08-26T19:34:48.485Z,97786.53
2022-08-26T19:37:28.385Z,97855.25
2022-08-26T19:40:02.346Z,97845.66
2022-08-26T19:42:38.572Z,97849.69
2022-08-26T19:45:24.742Z,97839.28
2022-08-26T19:47:57.292Z,97854.16
2022-08-26T19:50:30.920Z,97859.84
2022-08-26T19:53:01.270Z,97852.97
2022-08-26T19:55:31.146Z,97839.63
2022-08-26T19:58:00.763Z,97844.88
2022-08-26T20:00:41.774Z,97852.56
2022-08-26T20:03:25.965Z,97850.16
2022-08-26T20:06:03.957Z,97848.13
2022-08-26T20:08:40.300Z,97861.44
2022-08-26T20:11:14.903Z,97854.16
2022-08-26T20:13:47.662Z,97861.81
2022-08-26T20:16:17.691Z,97865.03
2022-08-26T20:19:08.672Z,97868.66
2022-08-26T20:21:41.563Z,97869.88
2022-08-26T20:24:23.611Z,97870.63
2022-08-26T20:26:57.687Z,97863.38
2022-08-26T20:29:34.811Z,97852.09
2022-08-26T20:32:18.466Z,97865.78
2022-08-26T20:34:53.102Z,97860.94
2022-08-26T20:37:24.864Z,97876.22
2022-08-26T20:42:40.839Z,97870.63
2022-08-26T20:45:13.703Z,97871.34
2022-08-26T20:47:45.443Z,97876.19
2022-08-26T20:50:19.633Z,97874.16
2022-08-26T20:52:47.898Z,97874.97
2022-08-26T20:55:17.620Z,97847.91
2022-08-26T20:57:51.203Z,97887.69
2022-08-26T21:00:26.572Z,97884.34
2022-08-26T21:03:13.870Z,97877.63
2022-08-26T21:05:46.810Z,97885.81
2022-08-26T21:08:18.141Z,97874.50
2022-08-26T21:10:51.404Z,97886.28
2022-08-26T21:13:26.651Z,97882.59
2022-08-26T21:16:02.732Z,97886.69
2022-08-26T21:18:35.884Z,97883.41
2022-08-26T21:21:15.003Z,97876.50
2022-08-26T21:23:46.180Z,97884.53
2022-08-26T21:26:20.433Z,97896.13
2022-08-26T21:28:48.950Z,97885.00
2022-08-26T21:31:25.837Z,97893.53
2022-08-26T21:33:55.431Z,97904.78
2022-08-26T21:36:32.181Z,97900.00
2022-08-26T21:39:11.717Z,97901.91
2022-08-26T21:41:43.005Z,97903.00
2022-08-26T21:44:32.031Z,97898.66
2022-08-26T21:47:08.913Z,97900.41
2022-08-26T21:49:46.954Z,97898.81
2022-08-26T21:52:17.869Z,97878.22
2022-08-26T21:54:49.944Z,97901.25
2022-08-26T21:57:34.640Z,97884.34
2022-08-26T22:00:10.565Z,97891.34
2022-08-26T22:02:44.765Z,97890.94
2022-08-26T22:05:22.474Z,97891.56
2022-08-26T22:07:55.496Z,97889.84
2022-08-26T22:10:26.175Z,97896.03
2022-08-26T22:13:02.956Z,97886.47
2022-08-26T22:15:44.115Z,97854.25
2022-08-26T22:18:21.641Z,97888.41
2022-08-26T22:20:52.832Z,97885.25
2022-08-26T22:23:22.458Z,97884.09
2022-08-26T22:25:51.336Z,97880.56
2022-08-26T22:28:33.837Z,97890.75
2022-08-26T22:31:05.341Z,97859.25
2022-08-26T22:33:39.300Z,97885.69
2022-08-26T22:36:24.723Z,97887.41
2022-08-26T22:38:56.182Z,97895.88
2022-08-26T22:41:33.567Z,97882.84
2022-08-26T22:44:08.816Z,97897.94
2022-08-26T22:46:42.445Z,97899.41
2022-08-26T22:49:18.781Z,97908.38
2022-08-26T22:51:48.851Z,97901.97
2022-08-26T22:54:22.238Z,97903.75
2022-08-26T22:57:02.457Z,97908.59
2022-08-26T22:59:37.235Z,97905.81
2022-08-26T23:02:12.832Z,97908.59
2022-08-26T23:04:57.475Z,97911.22
2022-08-26T23:07:31.491Z,97915.44
2022-08-26T23:10:11.630Z,97916.91
2022-08-26T23:12:58.702Z,97909.88
2022-08-26T23:15:36.512Z,97907.59
2022-08-26T23:18:06.332Z,97905.38
2022-08-26T23:20:43.001Z,97892.41
2022-08-26T23:23:16.407Z,97899.97
2022-08-26T23:25:56.043Z,97892.72
2022-08-26T23:28:24.932Z,97897.78
2022-08-26T23:30:55.255Z,97890.59
2022-08-26T23:33:48.848Z,97892.88
2022-08-26T23:36:22.826Z,97899.00
2022-08-26T23:39:05.302Z,97900.13
2022-08-26T23:41:38.080Z,97896.22
2022-08-26T23:44:10.995Z,97889.47
2022-08-26T23:46:39.910Z,97883.63
2022-08-26T23:49:10.554Z,97884.25
2022-08-26T23:52:01.380Z,97883.19
2022-08-26T23:54:37.196Z,97822.53
2022-08-26T23:57:18.546Z,97879.16
